OIFK  Kashan  Airport

Iran

Add Bookmark
ICAO OIFK
Type Airport
Status Operational
Latitude
33° 53' 43" N
33.895302
Longitude
51° 34' 37" E
51.577000
Local (GMT +4.5 ) UTC
May 1, 2016 02:24 pm May 1, 2016 09:54
Sunrise-Sunset Local UTC
Begin Civil Twilight 05:45 am 01:15
Sunrise 06:12 am 01:42
Sunset 07:48 pm 15:18
End Civil Twilight 08:15 pm 15:45
VFR
VFR
MVFR
MVFR
IFR
IFR
LIFR
LIFR
Unknown
Unavailable

Current Weather

METAR Observed VFR
OIFK 010800Z 33012KT CAVOK 28/07 Q1015 Sun, May 1, 2016 @ 08:00 UTC
(1 Hour, 54 Minutes ago)
Visual Flight Rules
Wind Visibility Conditions
330° at 12 knots (22 kph) 10 km or more
  • No significant weather
Temperatures Readings Precipitation
Current Temp
28°C
82°F
Dewpoint
7°C
45°F
Humidity 26%
Altimeter 29.97" Hg
Sea Level Pressure 1,015 mb
Field Elevation
982 m
3,222 ft
None Recorded
-
-

CheckWX.com is intended as a tool to help pilots better visualize weather data. It is not intended as a substitute for an official weather briefing obtained from a Flight Service Station. CheckWX.com does not meet the FAA requirements for an official pre-flight weather briefing. Therefore, it's important that pilots still call and obtain an official FSS pre-flight weather briefing.

© 2007-2016 CheckWX.com
09:54:37 UTC